sensor_id;sensor_type;location;lat;lon;timestamp;P1;P2;P0
64697;PMS5003;51124;53.394;-6.294;2023-04-24T00:00:38;13;13;
64697;PMS5003;51124;53.394;-6.294;2023-04-24T00:03:12;12;11;
64697;PMS5003;51124;53.394;-6.294;2023-04-24T00:05:47;12;11;
64697;PMS5003;51124;53.394;-6.294;2023-04-24T00:08:15;10;10;
64697;PMS5003;51124;53.394;-6.294;2023-04-24T00:10:42;12;12;
64697;PMS5003;51124;53.394;-6.294;2023-04-24T00:13:11;11;11;
64697;PMS5003;51124;53.394;-6.294;2023-04-24T00:15:38;12;12;
64697;PMS5003;51124;53.394;-6.294;2023-04-24T00:18:05;10;10;
64697;PMS5003;51124;53.394;-6.294;2023-04-24T00:20:32;12;11;
64697;PMS5003;51124;53.394;-6.294;2023-04-24T00:23:00;10;10;
64697;PMS5003;51124;53.394;-6.294;2023-04-24T00:25:28;9;9;
64697;PMS5003;51124;53.394;-6.294;2023-04-24T00:27:55;12;12;
64697;PMS5003;51124;53.394;-6.294;2023-04-24T00:30:22;11;11;
64697;PMS5003;51124;53.394;-6.294;2023-04-24T00:32:50;12;10;
64697;PMS5003;51124;53.394;-6.294;2023-04-24T00:35:17;10;10;
64697;PMS5003;51124;53.394;-6.294;2023-04-24T00:37:44;11;11;
64697;PMS5003;51124;53.394;-6.294;2023-04-24T00:40:11;11;11;
64697;PMS5003;51124;53.394;-6.294;2023-04-24T00:42:39;11;11;
64697;PMS5003;51124;53.394;-6.294;2023-04-24T00:45:08;12;11;
64697;PMS5003;51124;53.394;-6.294;2023-04-24T00:47:35;13;11;
64697;PMS5003;51124;53.394;-6.294;2023-04-24T00:50:04;12;12;
64697;PMS5003;51124;53.394;-6.294;2023-04-24T00:52:33;14;12;
64697;PMS5003;51124;53.394;-6.294;2023-04-24T00:55:01;11;11;
64697;PMS5003;51124;53.394;-6.294;2023-04-24T00:57:29;15;12;
64697;PMS5003;51124;53.394;-6.294;2023-04-24T00:59:57;11;11;
64697;PMS5003;51124;53.394;-6.294;2023-04-24T01:02:24;12;12;
64697;PMS5003;51124;53.394;-6.294;2023-04-24T01:04:52;15;14;
64697;PMS5003;51124;53.394;-6.294;2023-04-24T01:07:21;11;11;
64697;PMS5003;51124;53.394;-6.294;2023-04-24T01:09:49;18;16;
64697;PMS5003;51124;53.394;-6.294;2023-04-24T01:12:17;11;11;
64697;PMS5003;51124;53.394;-6.294;2023-04-24T01:14:45;10;10;
64697;PMS5003;51124;53.394;-6.294;2023-04-24T01:17:13;13;12;
64697;PMS5003;51124;53.394;-6.294;2023-04-24T01:19:40;12;12;
64697;PMS5003;51124;53.394;-6.294;2023-04-24T01:22:08;11;11;
64697;PMS5003;51124;53.394;-6.294;2023-04-24T01:24:38;12;11;
64697;PMS5003;51124;53.394;-6.294;2023-04-24T01:27:06;11;11;
64697;PMS5003;51124;53.394;-6.294;2023-04-24T01:29:34;11;11;
64697;PMS5003;51124;53.394;-6.294;2023-04-24T01:32:02;11;10;
64697;PMS5003;51124;53.394;-6.294;2023-04-24T01:34:30;13;12;
64697;PMS5003;51124;53.394;-6.294;2023-04-24T01:36:57;12;12;
64697;PMS5003;51124;53.394;-6.294;2023-04-24T01:39:25;11;11;
64697;PMS5003;51124;53.394;-6.294;2023-04-24T01:41:52;10;9;
64697;PMS5003;51124;53.394;-6.294;2023-04-24T01:44:20;12;9;
64697;PMS5003;51124;53.394;-6.294;2023-04-24T01:46:48;12;11;
64697;PMS5003;51124;53.394;-6.294;2023-04-24T01:49:15;11;11;
64697;PMS5003;51124;53.394;-6.294;2023-04-24T01:51:42;10;10;
64697;PMS5003;51124;53.394;-6.294;2023-04-24T01:54:10;12;12;
64697;PMS5003;51124;53.394;-6.294;2023-04-24T01:56:38;11;11;
64697;PMS5003;51124;53.394;-6.294;2023-04-24T01:59:07;10;10;
64697;PMS5003;51124;53.394;-6.294;2023-04-24T02:01:36;13;12;
64697;PMS5003;51124;53.394;-6.294;2023-04-24T02:04:04;11;10;
64697;PMS5003;51124;53.394;-6.294;2023-04-24T02:06:32;13;11;
64697;PMS5003;51124;53.394;-6.294;2023-04-24T02:08:59;11;11;
64697;PMS5003;51124;53.394;-6.294;2023-04-24T02:11:27;10;9;
64697;PMS5003;51124;53.394;-6.294;2023-04-24T02:13:54;9;9;
64697;PMS5003;51124;53.394;-6.294;2023-04-24T02:16:22;10;10;
64697;PMS5003;51124;53.394;-6.294;2023-04-24T02:18:49;14;13;
64697;PMS5003;51124;53.394;-6.294;2023-04-24T02:21:16;13;13;
64697;PMS5003;51124;53.394;-6.294;2023-04-24T02:23:43;9;9;
64697;PMS5003;51124;53.394;-6.294;2023-04-24T02:26:11;11;11;
64697;PMS5003;51124;53.394;-6.294;2023-04-24T02:28:38;11;11;
64697;PMS5003;51124;53.394;-6.294;2023-04-24T02:31:05;11;11;
64697;PMS5003;51124;53.394;-6.294;2023-04-24T02:33:32;12;12;
64697;PMS5003;51124;53.394;-6.294;2023-04-24T02:36:00;12;11;
64697;PMS5003;51124;53.394;-6.294;2023-04-24T02:38:27;13;11;
64697;PMS5003;51124;53.394;-6.294;2023-04-24T02:40:54;12;11;
64697;PMS5003;51124;53.394;-6.294;2023-04-24T02:43:21;12;11;
64697;PMS5003;51124;53.394;-6.294;2023-04-24T02:45:49;12;11;
64697;PMS5003;51124;53.394;-6.294;2023-04-24T02:48:16;14;14;
64697;PMS5003;51124;53.394;-6.294;2023-04-24T02:50:43;11;11;
64697;PMS5003;51124;53.394;-6.294;2023-04-24T02:53:11;11;11;
64697;PMS5003;51124;53.394;-6.294;2023-04-24T02:55:38;10;10;
64697;PMS5003;51124;53.394;-6.294;2023-04-24T02:58:06;13;12;
64697;PMS5003;51124;53.394;-6.294;2023-04-24T03:00:33;12;12;
64697;PMS5003;51124;53.394;-6.294;2023-04-24T03:03:00;13;10;
64697;PMS5003;51124;53.394;-6.294;2023-04-24T03:05:28;14;11;
64697;PMS5003;51124;53.394;-6.294;2023-04-24T03:07:55;17;12;
64697;PMS5003;51124;53.394;-6.294;2023-04-24T03:10:23;11;11;
64697;PMS5003;51124;53.394;-6.294;2023-04-24T03:12:50;15;15;
64697;PMS5003;51124;53.394;-6.294;2023-04-24T03:15:17;12;12;
64697;PMS5003;51124;53.394;-6.294;2023-04-24T03:17:45;11;11;
64697;PMS5003;51124;53.394;-6.294;2023-04-24T03:20:12;11;11;
64697;PMS5003;51124;53.394;-6.294;2023-04-24T03:22:40;14;14;
64697;PMS5003;51124;53.394;-6.294;2023-04-24T03:25:07;15;15;
64697;PMS5003;51124;53.394;-6.294;2023-04-24T03:27:35;11;10;
64697;PMS5003;51124;53.394;-6.294;2023-04-24T03:30:02;10;10;
64697;PMS5003;51124;53.394;-6.294;2023-04-24T03:32:30;15;13;
64697;PMS5003;51124;53.394;-6.294;2023-04-24T03:34:58;12;11;
64697;PMS5003;51124;53.394;-6.294;2023-04-24T03:37:26;12;11;
64697;PMS5003;51124;53.394;-6.294;2023-04-24T03:39:53;12;12;
64697;PMS5003;51124;53.394;-6.294;2023-04-24T03:42:21;12;12;
64697;PMS5003;51124;53.394;-6.294;2023-04-24T03:44:48;12;12;
64697;PMS5003;51124;53.394;-6.294;2023-04-24T03:47:15;12;12;
64697;PMS5003;51124;53.394;-6.294;2023-04-24T03:49:43;10;10;
64697;PMS5003;51124;53.394;-6.294;2023-04-24T03:52:11;14;13;
64697;PMS5003;51124;53.394;-6.294;2023-04-24T03:54:38;14;14;
64697;PMS5003;51124;53.394;-6.294;2023-04-24T03:57:05;16;16;
64697;PMS5003;51124;53.394;-6.294;2023-04-24T03:59:33;17;15;
64697;PMS5003;51124;53.394;-6.294;2023-04-24T04:02:01;14;14;
64697;PMS5003;51124;53.394;-6.294;2023-04-24T04:04:28;18;16;
64697;PMS5003;51124;53.394;-6.294;2023-04-24T04:06:55;16;15;
64697;PMS5003;51124;53.394;-6.294;2023-04-24T04:09:23;17;14;
64697;PMS5003;51124;53.394;-6.294;2023-04-24T04:11:50;13;12;
64697;PMS5003;51124;53.394;-6.294;2023-04-24T04:14:18;13;11;
64697;PMS5003;51124;53.394;-6.294;2023-04-24T04:16:45;16;15;
64697;PMS5003;51124;53.394;-6.294;2023-04-24T04:19:13;17;15;
64697;PMS5003;51124;53.394;-6.294;2023-04-24T04:21:40;12;10;
64697;PMS5003;51124;53.394;-6.294;2023-04-24T04:24:08;14;14;
64697;PMS5003;51124;53.394;-6.294;2023-04-24T04:26:35;15;14;
64697;PMS5003;51124;53.394;-6.294;2023-04-24T04:29:03;16;15;
64697;PMS5003;51124;53.394;-6.294;2023-04-24T04:31:31;15;14;
64697;PMS5003;51124;53.394;-6.294;2023-04-24T04:33:58;14;14;
64697;PMS5003;51124;53.394;-6.294;2023-04-24T04:36:25;15;12;
64697;PMS5003;51124;53.394;-6.294;2023-04-24T04:38:52;14;14;
64697;PMS5003;51124;53.394;-6.294;2023-04-24T04:41:19;13;13;
64697;PMS5003;51124;53.394;-6.294;2023-04-24T04:43:47;14;14;
64697;PMS5003;51124;53.394;-6.294;2023-04-24T04:46:14;15;15;
64697;PMS5003;51124;53.394;-6.294;2023-04-24T04:48:41;15;13;
64697;PMS5003;51124;53.394;-6.294;2023-04-24T04:51:08;13;13;
64697;PMS5003;51124;53.394;-6.294;2023-04-24T04:53:36;15;14;
64697;PMS5003;51124;53.394;-6.294;2023-04-24T04:56:03;13;13;
64697;PMS5003;51124;53.394;-6.294;2023-04-24T04:58:30;13;12;
64697;PMS5003;51124;53.394;-6.294;2023-04-24T05:00:57;19;19;
64697;PMS5003;51124;53.394;-6.294;2023-04-24T05:03:25;16;15;
64697;PMS5003;51124;53.394;-6.294;2023-04-24T05:05:52;15;15;
64697;PMS5003;51124;53.394;-6.294;2023-04-24T05:08:19;17;16;
64697;PMS5003;51124;53.394;-6.294;2023-04-24T05:10:46;16;15;
64697;PMS5003;51124;53.394;-6.294;2023-04-24T05:13:14;16;16;
64697;PMS5003;51124;53.394;-6.294;2023-04-24T05:15:41;15;14;
64697;PMS5003;51124;53.394;-6.294;2023-04-24T05:18:08;14;14;
64697;PMS5003;51124;53.394;-6.294;2023-04-24T05:20:35;12;12;
64697;PMS5003;51124;53.394;-6.294;2023-04-24T05:23:03;17;15;
64697;PMS5003;51124;53.394;-6.294;2023-04-24T05:25:30;16;15;
64697;PMS5003;51124;53.394;-6.294;2023-04-24T05:27:57;15;14;
64697;PMS5003;51124;53.394;-6.294;2023-04-24T05:30:25;15;15;
64697;PMS5003;51124;53.394;-6.294;2023-04-24T05:32:52;17;16;
64697;PMS5003;51124;53.394;-6.294;2023-04-24T05:35:19;13;13;
64697;PMS5003;51124;53.394;-6.294;2023-04-24T05:37:46;18;15;
64697;PMS5003;51124;53.394;-6.294;2023-04-24T05:40:13;13;12;
64697;PMS5003;51124;53.394;-6.294;2023-04-24T05:42:41;16;12;
64697;PMS5003;51124;53.394;-6.294;2023-04-24T05:45:08;16;12;
64697;PMS5003;51124;53.394;-6.294;2023-04-24T05:47:35;17;16;
64697;PMS5003;51124;53.394;-6.294;2023-04-24T05:50:03;16;13;
64697;PMS5003;51124;53.394;-6.294;2023-04-24T05:52:31;12;12;
64697;PMS5003;51124;53.394;-6.294;2023-04-24T05:54:58;20;16;
64697;PMS5003;51124;53.394;-6.294;2023-04-24T05:57:25;15;15;
64697;PMS5003;51124;53.394;-6.294;2023-04-24T05:59:51;16;15;
64697;PMS5003;51124;53.394;-6.294;2023-04-24T06:02:24;14;14;
64697;PMS5003;51124;53.394;-6.294;2023-04-24T06:04:58;15;15;
64697;PMS5003;51124;53.394;-6.294;2023-04-24T06:07:31;17;14;
64697;PMS5003;51124;53.394;-6.294;2023-04-24T06:10:05;14;13;
64697;PMS5003;51124;53.394;-6.294;2023-04-24T06:12:39;15;13;
64697;PMS5003;51124;53.394;-6.294;2023-04-24T06:15:12;16;16;
64697;PMS5003;51124;53.394;-6.294;2023-04-24T06:17:45;15;15;
64697;PMS5003;51124;53.394;-6.294;2023-04-24T06:20:19;15;14;
64697;PMS5003;51124;53.394;-6.294;2023-04-24T06:22:52;15;15;
64697;PMS5003;51124;53.394;-6.294;2023-04-24T06:25:26;15;13;
64697;PMS5003;51124;53.394;-6.294;2023-04-24T06:27:59;18;17;
64697;PMS5003;51124;53.394;-6.294;2023-04-24T06:30:33;18;15;
64697;PMS5003;51124;53.394;-6.294;2023-04-24T06:33:06;16;16;
64697;PMS5003;51124;53.394;-6.294;2023-04-24T06:35:40;16;14;
64697;PMS5003;51124;53.394;-6.294;2023-04-24T06:38:13;14;14;
64697;PMS5003;51124;53.394;-6.294;2023-04-24T06:40:46;14;14;
64697;PMS5003;51124;53.394;-6.294;2023-04-24T06:43:20;14;13;
64697;PMS5003;51124;53.394;-6.294;2023-04-24T06:45:54;14;14;
64697;PMS5003;51124;53.394;-6.294;2023-04-24T06:48:27;16;14;
64697;PMS5003;51124;53.394;-6.294;2023-04-24T06:51:01;16;15;
64697;PMS5003;51124;53.394;-6.294;2023-04-24T06:53:35;16;15;
64697;PMS5003;51124;53.394;-6.294;2023-04-24T06:56:09;17;15;
64697;PMS5003;51124;53.394;-6.294;2023-04-24T06:58:42;16;15;
64697;PMS5003;51124;53.394;-6.294;2023-04-24T07:01:16;15;14;
64697;PMS5003;51124;53.394;-6.294;2023-04-24T07:03:50;18;15;
64697;PMS5003;51124;53.394;-6.294;2023-04-24T07:06:23;15;15;
64697;PMS5003;51124;53.394;-6.294;2023-04-24T07:08:57;16;16;
64697;PMS5003;51124;53.394;-6.294;2023-04-24T07:11:30;15;14;
64697;PMS5003;51124;53.394;-6.294;2023-04-24T07:14:04;14;14;
64697;PMS5003;51124;53.394;-6.294;2023-04-24T07:16:37;15;15;
64697;PMS5003;51124;53.394;-6.294;2023-04-24T07:19:12;15;15;
64697;PMS5003;51124;53.394;-6.294;2023-04-24T07:21:46;21;19;
64697;PMS5003;51124;53.394;-6.294;2023-04-24T07:24:20;15;14;
64697;PMS5003;51124;53.394;-6.294;2023-04-24T07:26:53;18;16;
64697;PMS5003;51124;53.394;-6.294;2023-04-24T07:29:27;21;19;
64697;PMS5003;51124;53.394;-6.294;2023-04-24T07:32:00;17;16;
64697;PMS5003;51124;53.394;-6.294;2023-04-24T07:34:34;15;15;
64697;PMS5003;51124;53.394;-6.294;2023-04-24T07:37:07;20;19;
64697;PMS5003;51124;53.394;-6.294;2023-04-24T07:39:40;16;16;
64697;PMS5003;51124;53.394;-6.294;2023-04-24T07:42:14;17;15;
64697;PMS5003;51124;53.394;-6.294;2023-04-24T07:44:47;17;16;
64697;PMS5003;51124;53.394;-6.294;2023-04-24T07:47:20;17;17;
64697;PMS5003;51124;53.394;-6.294;2023-04-24T07:49:54;17;17;
64697;PMS5003;51124;53.394;-6.294;2023-04-24T07:52:27;19;15;
64697;PMS5003;51124;53.394;-6.294;2023-04-24T07:55:01;16;14;
64697;PMS5003;51124;53.394;-6.294;2023-04-24T07:57:34;14;14;
64697;PMS5003;51124;53.394;-6.294;2023-04-24T08:00:09;17;16;
64697;PMS5003;51124;53.394;-6.294;2023-04-24T08:02:43;16;16;
64697;PMS5003;51124;53.394;-6.294;2023-04-24T08:05:16;17;14;
64697;PMS5003;51124;53.394;-6.294;2023-04-24T08:07:50;19;17;
64697;PMS5003;51124;53.394;-6.294;2023-04-24T08:10:24;17;17;
64697;PMS5003;51124;53.394;-6.294;2023-04-24T08:12:58;23;18;
64697;PMS5003;51124;53.394;-6.294;2023-04-24T08:15:31;21;15;
64697;PMS5003;51124;53.394;-6.294;2023-04-24T08:18:04;17;17;
64697;PMS5003;51124;53.394;-6.294;2023-04-24T08:20:38;18;16;
64697;PMS5003;51124;53.394;-6.294;2023-04-24T08:23:12;17;17;
64697;PMS5003;51124;53.394;-6.294;2023-04-24T08:25:45;16;16;
64697;PMS5003;51124;53.394;-6.294;2023-04-24T08:28:19;18;17;
64697;PMS5003;51124;53.394;-6.294;2023-04-24T08:30:52;18;17;
64697;PMS5003;51124;53.394;-6.294;2023-04-24T08:33:26;17;17;
64697;PMS5003;51124;53.394;-6.294;2023-04-24T08:35:59;17;17;
64697;PMS5003;51124;53.394;-6.294;2023-04-24T08:38:33;13;13;
64697;PMS5003;51124;53.394;-6.294;2023-04-24T08:41:07;17;15;
64697;PMS5003;51124;53.394;-6.294;2023-04-24T08:43:42;18;17;
64697;PMS5003;51124;53.394;-6.294;2023-04-24T08:46:16;15;15;
64697;PMS5003;51124;53.394;-6.294;2023-04-24T08:48:51;17;14;
64697;PMS5003;51124;53.394;-6.294;2023-04-24T08:51:25;15;15;
64697;PMS5003;51124;53.394;-6.294;2023-04-24T08:53:59;20;18;
64697;PMS5003;51124;53.394;-6.294;2023-04-24T08:56:34;17;17;
64697;PMS5003;51124;53.394;-6.294;2023-04-24T08:58:59;15;14;
64697;PMS5003;51124;53.394;-6.294;2023-04-24T09:01:33;17;15;
64697;PMS5003;51124;53.394;-6.294;2023-04-24T09:04:09;17;17;
64697;PMS5003;51124;53.394;-6.294;2023-04-24T09:06:42;15;15;
64697;PMS5003;51124;53.394;-6.294;2023-04-24T09:09:17;17;17;
64697;PMS5003;51124;53.394;-6.294;2023-04-24T09:11:51;16;15;
64697;PMS5003;51124;53.394;-6.294;2023-04-24T09:14:25;16;15;
64697;PMS5003;51124;53.394;-6.294;2023-04-24T09:16:59;18;18;
64697;PMS5003;51124;53.394;-6.294;2023-04-24T09:19:32;19;19;
64697;PMS5003;51124;53.394;-6.294;2023-04-24T09:22:06;17;17;
64697;PMS5003;51124;53.394;-6.294;2023-04-24T09:24:40;18;16;
64697;PMS5003;51124;53.394;-6.294;2023-04-24T09:27:13;16;16;
64697;PMS5003;51124;53.394;-6.294;2023-04-24T09:29:54;17;15;
64697;PMS5003;51124;53.394;-6.294;2023-04-24T09:32:18;20;16;
64697;PMS5003;51124;53.394;-6.294;2023-04-24T09:35:04;17;17;
64697;PMS5003;51124;53.394;-6.294;2023-04-24T09:37:27;19;17;
64697;PMS5003;51124;53.394;-6.294;2023-04-24T09:40:00;16;15;
64697;PMS5003;51124;53.394;-6.294;2023-04-24T09:42:20;17;17;
64697;PMS5003;51124;53.394;-6.294;2023-04-24T09:44:49;16;15;
64697;PMS5003;51124;53.394;-6.294;2023-04-24T09:47:22;21;21;
64697;PMS5003;51124;53.394;-6.294;2023-04-24T09:49:57;15;14;
64697;PMS5003;51124;53.394;-6.294;2023-04-24T09:52:21;17;16;
64697;PMS5003;51124;53.394;-6.294;2023-04-24T09:54:55;21;18;
64697;PMS5003;51124;53.394;-6.294;2023-04-24T09:57:28;15;14;
64697;PMS5003;51124;53.394;-6.294;2023-04-24T10:00:02;17;17;
64697;PMS5003;51124;53.394;-6.294;2023-04-24T10:02:36;17;17;
64697;PMS5003;51124;53.394;-6.294;2023-04-24T10:05:10;19;16;
64697;PMS5003;51124;53.394;-6.294;2023-04-24T10:07:44;16;16;
64697;PMS5003;51124;53.394;-6.294;2023-04-24T10:10:18;22;22;
64697;PMS5003;51124;53.394;-6.294;2023-04-24T10:12:52;18;17;
64697;PMS5003;51124;53.394;-6.294;2023-04-24T10:15:26;19;16;
64697;PMS5003;51124;53.394;-6.294;2023-04-24T10:18:00;18;17;
64697;PMS5003;51124;53.394;-6.294;2023-04-24T10:20:27;20;17;
64697;PMS5003;51124;53.394;-6.294;2023-04-24T10:22:53;19;17;
64697;PMS5003;51124;53.394;-6.294;2023-04-24T10:25:27;21;21;
64697;PMS5003;51124;53.394;-6.294;2023-04-24T10:28:02;18;18;
64697;PMS5003;51124;53.394;-6.294;2023-04-24T10:30:36;15;15;
64697;PMS5003;51124;53.394;-6.294;2023-04-24T10:33:11;17;17;
64697;PMS5003;51124;53.394;-6.294;2023-04-24T10:35:47;17;17;
64697;PMS5003;51124;53.394;-6.294;2023-04-24T10:38:13;18;18;
64697;PMS5003;51124;53.394;-6.294;2023-04-24T10:40:39;18;18;
64697;PMS5003;51124;53.394;-6.294;2023-04-24T10:43:13;18;18;
64697;PMS5003;51124;53.394;-6.294;2023-04-24T10:45:40;20;20;
64697;PMS5003;51124;53.394;-6.294;2023-04-24T10:48:14;18;17;
64697;PMS5003;51124;53.394;-6.294;2023-04-24T10:50:50;18;18;
64697;PMS5003;51124;53.394;-6.294;2023-04-24T10:53:15;17;17;
64697;PMS5003;51124;53.394;-6.294;2023-04-24T10:55:50;17;16;
64697;PMS5003;51124;53.394;-6.294;2023-04-24T10:58:15;15;15;
64697;PMS5003;51124;53.394;-6.294;2023-04-24T11:00:55;19;19;
64697;PMS5003;51124;53.394;-6.294;2023-04-24T11:03:23;19;19;
64697;PMS5003;51124;53.394;-6.294;2023-04-24T11:05:49;19;19;
64697;PMS5003;51124;53.394;-6.294;2023-04-24T11:08:14;17;17;
64697;PMS5003;51124;53.394;-6.294;2023-04-24T11:10:54;20;18;
64697;PMS5003;51124;53.394;-6.294;2023-04-24T11:13:21;18;17;
64697;PMS5003;51124;53.394;-6.294;2023-04-24T11:15:45;15;15;
64697;PMS5003;51124;53.394;-6.294;2023-04-24T11:18:14;14;14;
64697;PMS5003;51124;53.394;-6.294;2023-04-24T11:20:48;16;15;
64697;PMS5003;51124;53.394;-6.294;2023-04-24T11:23:21;16;15;
64697;PMS5003;51124;53.394;-6.294;2023-04-24T11:26:09;15;14;
64697;PMS5003;51124;53.394;-6.294;2023-04-24T11:28:23;14;14;
64697;PMS5003;51124;53.394;-6.294;2023-04-24T11:30:57;16;16;
64697;PMS5003;51124;53.394;-6.294;2023-04-24T11:33:30;19;19;
64697;PMS5003;51124;53.394;-6.294;2023-04-24T11:36:05;17;15;
64697;PMS5003;51124;53.394;-6.294;2023-04-24T11:38:38;15;15;
64697;PMS5003;51124;53.394;-6.294;2023-04-24T11:41:12;15;15;
64697;PMS5003;51124;53.394;-6.294;2023-04-24T11:43:46;16;15;
64697;PMS5003;51124;53.394;-6.294;2023-04-24T11:46:20;16;16;
64697;PMS5003;51124;53.394;-6.294;2023-04-24T11:48:54;16;14;
64697;PMS5003;51124;53.394;-6.294;2023-04-24T11:51:27;18;17;
64697;PMS5003;51124;53.394;-6.294;2023-04-24T11:54:01;15;15;
64697;PMS5003;51124;53.394;-6.294;2023-04-24T11:56:34;18;17;
64697;PMS5003;51124;53.394;-6.294;2023-04-24T11:59:08;17;17;
64697;PMS5003;51124;53.394;-6.294;2023-04-24T12:01:43;15;15;
64697;PMS5003;51124;53.394;-6.294;2023-04-24T12:04:17;21;18;
64697;PMS5003;51124;53.394;-6.294;2023-04-24T12:07:06;20;20;
64697;PMS5003;51124;53.394;-6.294;2023-04-24T12:09:19;19;17;
64697;PMS5003;51124;53.394;-6.294;2023-04-24T12:11:53;21;16;
64697;PMS5003;51124;53.394;-6.294;2023-04-24T12:14:27;15;15;
64697;PMS5003;51124;53.394;-6.294;2023-04-24T12:17:02;16;16;
64697;PMS5003;51124;53.394;-6.294;2023-04-24T12:19:36;17;17;
64697;PMS5003;51124;53.394;-6.294;2023-04-24T12:22:09;16;16;
64697;PMS5003;51124;53.394;-6.294;2023-04-24T12:24:59;19;16;
64697;PMS5003;51124;53.394;-6.294;2023-04-24T12:27:19;16;15;
64697;PMS5003;51124;53.394;-6.294;2023-04-24T12:29:50;18;17;
64697;PMS5003;51124;53.394;-6.294;2023-04-24T12:32:15;14;14;
64697;PMS5003;51124;53.394;-6.294;2023-04-24T12:34:49;18;17;
64697;PMS5003;51124;53.394;-6.294;2023-04-24T12:37:23;15;13;
64697;PMS5003;51124;53.394;-6.294;2023-04-24T12:39:58;16;16;
64697;PMS5003;51124;53.394;-6.294;2023-04-24T12:42:33;17;14;
64697;PMS5003;51124;53.394;-6.294;2023-04-24T12:45:07;14;14;
64697;PMS5003;51124;53.394;-6.294;2023-04-24T12:47:41;19;18;
64697;PMS5003;51124;53.394;-6.294;2023-04-24T12:50:16;16;16;
64697;PMS5003;51124;53.394;-6.294;2023-04-24T12:53:03;19;19;
64697;PMS5003;51124;53.394;-6.294;2023-04-24T12:55:16;16;15;
64697;PMS5003;51124;53.394;-6.294;2023-04-24T12:58:07;17;16;
64697;PMS5003;51124;53.394;-6.294;2023-04-24T13:00:20;18;18;
64697;PMS5003;51124;53.394;-6.294;2023-04-24T13:02:54;17;17;
64697;PMS5003;51124;53.394;-6.294;2023-04-24T13:05:28;16;15;
64697;PMS5003;51124;53.394;-6.294;2023-04-24T13:08:02;15;15;
64697;PMS5003;51124;53.394;-6.294;2023-04-24T13:10:35;17;14;
64697;PMS5003;51124;53.394;-6.294;2023-04-24T13:13:09;17;15;
64697;PMS5003;51124;53.394;-6.294;2023-04-24T13:15:43;20;17;
64697;PMS5003;51124;53.394;-6.294;2023-04-24T13:18:16;19;17;
64697;PMS5003;51124;53.394;-6.294;2023-04-24T13:20:50;18;16;
64697;PMS5003;51124;53.394;-6.294;2023-04-24T13:23:24;18;18;
64697;PMS5003;51124;53.394;-6.294;2023-04-24T13:25:58;15;15;
64697;PMS5003;51124;53.394;-6.294;2023-04-24T13:28:32;20;18;
64697;PMS5003;51124;53.394;-6.294;2023-04-24T13:31:05;17;15;
64697;PMS5003;51124;53.394;-6.294;2023-04-24T13:33:39;18;17;
64697;PMS5003;51124;53.394;-6.294;2023-04-24T13:36:12;21;18;
64697;PMS5003;51124;53.394;-6.294;2023-04-24T13:38:45;19;18;
64697;PMS5003;51124;53.394;-6.294;2023-04-24T13:41:19;18;18;
64697;PMS5003;51124;53.394;-6.294;2023-04-24T13:44:01;21;20;
64697;PMS5003;51124;53.394;-6.294;2023-04-24T13:46:24;17;17;
64697;PMS5003;51124;53.394;-6.294;2023-04-24T13:48:58;20;19;
64697;PMS5003;51124;53.394;-6.294;2023-04-24T13:51:33;17;17;
64697;PMS5003;51124;53.394;-6.294;2023-04-24T13:54:06;22;19;
64697;PMS5003;51124;53.394;-6.294;2023-04-24T13:56:40;24;20;
64697;PMS5003;51124;53.394;-6.294;2023-04-24T13:59:14;19;19;
64697;PMS5003;51124;53.394;-6.294;2023-04-24T14:01:47;23;22;
64697;PMS5003;51124;53.394;-6.294;2023-04-24T14:04:22;18;18;
64697;PMS5003;51124;53.394;-6.294;2023-04-24T14:06:46;18;18;
64697;PMS5003;51124;53.394;-6.294;2023-04-24T14:09:20;18;18;
64697;PMS5003;51124;53.394;-6.294;2023-04-24T14:11:53;17;17;
64697;PMS5003;51124;53.394;-6.294;2023-04-24T14:14:26;23;21;
64697;PMS5003;51124;53.394;-6.294;2023-04-24T14:17:00;19;19;
64697;PMS5003;51124;53.394;-6.294;2023-04-24T14:19:34;21;21;
64697;PMS5003;51124;53.394;-6.294;2023-04-24T14:22:07;19;18;
64697;PMS5003;51124;53.394;-6.294;2023-04-24T14:24:40;20;19;
64697;PMS5003;51124;53.394;-6.294;2023-04-24T14:27:14;24;21;
64697;PMS5003;51124;53.394;-6.294;2023-04-24T14:29:47;21;20;
64697;PMS5003;51124;53.394;-6.294;2023-04-24T14:32:20;22;19;
64697;PMS5003;51124;53.394;-6.294;2023-04-24T14:34:54;20;18;
64697;PMS5003;51124;53.394;-6.294;2023-04-24T14:37:27;20;20;
64697;PMS5003;51124;53.394;-6.294;2023-04-24T14:40:01;18;16;
64697;PMS5003;51124;53.394;-6.294;2023-04-24T14:42:35;21;20;
64697;PMS5003;51124;53.394;-6.294;2023-04-24T14:45:09;21;19;
64697;PMS5003;51124;53.394;-6.294;2023-04-24T14:47:43;20;20;
64697;PMS5003;51124;53.394;-6.294;2023-04-24T14:50:17;22;21;
64697;PMS5003;51124;53.394;-6.294;2023-04-24T14:52:51;21;21;
64697;PMS5003;51124;53.394;-6.294;2023-04-24T14:55:24;20;19;
64697;PMS5003;51124;53.394;-6.294;2023-04-24T14:57:58;21;17;
64697;PMS5003;51124;53.394;-6.294;2023-04-24T15:00:32;18;16;
64697;PMS5003;51124;53.394;-6.294;2023-04-24T15:03:06;25;23;
64697;PMS5003;51124;53.394;-6.294;2023-04-24T15:05:40;20;20;
64697;PMS5003;51124;53.394;-6.294;2023-04-24T15:08:13;21;20;
64697;PMS5003;51124;53.394;-6.294;2023-04-24T15:10:47;21;20;
64697;PMS5003;51124;53.394;-6.294;2023-04-24T15:13:21;19;18;
64697;PMS5003;51124;53.394;-6.294;2023-04-24T15:15:54;20;20;
64697;PMS5003;51124;53.394;-6.294;2023-04-24T15:18:27;19;19;
64697;PMS5003;51124;53.394;-6.294;2023-04-24T15:21:01;21;20;
64697;PMS5003;51124;53.394;-6.294;2023-04-24T15:23:34;22;19;
64697;PMS5003;51124;53.394;-6.294;2023-04-24T15:26:08;23;20;
64697;PMS5003;51124;53.394;-6.294;2023-04-24T15:28:41;19;19;
64697;PMS5003;51124;53.394;-6.294;2023-04-24T15:31:15;20;20;
64697;PMS5003;51124;53.394;-6.294;2023-04-24T15:33:48;24;20;
64697;PMS5003;51124;53.394;-6.294;2023-04-24T15:36:22;17;17;
64697;PMS5003;51124;53.394;-6.294;2023-04-24T15:38:56;24;21;
64697;PMS5003;51124;53.394;-6.294;2023-04-24T15:41:29;22;19;
64697;PMS5003;51124;53.394;-6.294;2023-04-24T15:44:03;21;21;
64697;PMS5003;51124;53.394;-6.294;2023-04-24T15:46:36;22;21;
64697;PMS5003;51124;53.394;-6.294;2023-04-24T15:49:10;20;20;
64697;PMS5003;51124;53.394;-6.294;2023-04-24T15:51:43;20;20;
64697;PMS5003;51124;53.394;-6.294;2023-04-24T15:54:17;17;17;
64697;PMS5003;51124;53.394;-6.294;2023-04-24T15:56:51;23;21;
64697;PMS5003;51124;53.394;-6.294;2023-04-24T15:59:24;16;16;
64697;PMS5003;51124;53.394;-6.294;2023-04-24T16:01:58;18;17;
64697;PMS5003;51124;53.394;-6.294;2023-04-24T16:04:33;18;17;
64697;PMS5003;51124;53.394;-6.294;2023-04-24T16:07:06;19;18;
64697;PMS5003;51124;53.394;-6.294;2023-04-24T16:09:40;20;20;
64697;PMS5003;51124;53.394;-6.294;2023-04-24T16:12:13;18;18;
64697;PMS5003;51124;53.394;-6.294;2023-04-24T16:14:47;19;16;
64697;PMS5003;51124;53.394;-6.294;2023-04-24T16:17:21;17;17;
64697;PMS5003;51124;53.394;-6.294;2023-04-24T16:19:54;19;18;
64697;PMS5003;51124;53.394;-6.294;2023-04-24T16:22:28;16;16;
64697;PMS5003;51124;53.394;-6.294;2023-04-24T16:25:01;20;18;